Observation data for Levelland on 07/07/2020      Previous  Date  Next       Current Mesonet Observations  Soil Data  Daily Summary Page  Observations in Plain Language
KLD1 070500Z 13007KT 24/18 A3009 RMK A01 T02400184  RH  075%=      5-min Rain = 0
KLD1 070505Z 13007KT 24/18 A3009 RMK A01 T02400184  RH  075%=      5-min Rain = 0
KLD1 070510Z 13007KT 24/18 A3009 RMK A01 T02400184  RH  075%=      5-min Rain = 0
KLD1 070515Z 13008KT 24/18 A3009 RMK A01 T02390184  RH  075%=      5-min Rain = 0
KLD1 070520Z 13007KT 24/18 A3009 RMK A01 T02380184  RH  076%=      5-min Rain = 0
KLD1 070525Z 13007KT 24/18 A3009 RMK A01 T02370183  RH  076%=      5-min Rain = 0
KLD1 070530Z 12007KT 24/18 A3009 RMK A01 T02360183  RH  076%=      5-min Rain = 0
KLD1 070535Z 12008KT 24/18 A3009 RMK A01 T02360181  RH  075%=      5-min Rain = 0
KLD1 070540Z 11006KT 23/18 A3009 RMK A01 T02340182  RH  076%=      5-min Rain = 0
KLD1 070545Z 11005KT 23/18 A3009 RMK A01 T02320182  RH  077%=      5-min Rain = 0
KLD1 070550Z 11005KT 23/18 A3009 RMK A01 T02290183  RH  079%=      5-min Rain = 0
KLD1 070555Z 11004KT 23/18 A3009 RMK A01 T02260184  RH  081%=      5-min Rain = 0
KLD1 070600Z 12004KT 22/18 A3009 RMK A01 T02240184  RH  083%=      5-min Rain = 0
KLD1 070605Z 11003KT 22/19 A3009 RMK A01 T02240185  RH  083%=      5-min Rain = 0
KLD1 070610Z 11004KT 22/18 A3009 RMK A01 T02210184  RH  084%=      5-min Rain = 0
KLD1 070615Z 11005KT 22/19 A3009 RMK A01 T02180185  RH  086%=      5-min Rain = 0
KLD1 070620Z 12004KT 22/19 A3009 RMK A01 T02190186  RH  086%=      5-min Rain = 0
KLD1 070625Z 11004KT 22/19 A3009 RMK A01 T02210186  RH  085%=      5-min Rain = 0
KLD1 070630Z 11004KT 22/19 A3009 RMK A01 T02180186  RH  087%=      5-min Rain = 0
KLD1 070635Z 12003KT 22/19 A3009 RMK A01 T02180187  RH  087%=      5-min Rain = 0
KLD1 070640Z 12004KT 22/19 A3009 RMK A01 T02220186  RH  085%=      5-min Rain = 0
KLD1 070645Z 11005KT 22/19 A3009 RMK A01 T02210186  RH  085%=      5-min Rain = 0
KLD1 070650Z 11004KT 22/18 A3009 RMK A01 T02160184  RH  087%=      5-min Rain = 0
KLD1 070655Z 12004KT 21/18 A3008 RMK A01 T02140184  RH  088%=      5-min Rain = 0
KLD1 070700Z 12004KT 22/19 A3008 RMK A01 T02160185  RH  087%=      5-min Rain = 0
KLD1 070705Z 14004KT 22/19 A3008 RMK A01 T02190185  RH  085%=      5-min Rain = 0
KLD1 070710Z 14005KT 22/18 A3008 RMK A01 T02180184  RH  086%=      5-min Rain = 0
KLD1 070715Z 12004KT 22/18 A3008 RMK A01 T02180184  RH  085%=      5-min Rain = 0
KLD1 070720Z 12004KT 22/18 A3008 RMK A01 T02180184  RH  085%=      5-min Rain = 0
KLD1 070725Z 11004KT 22/18 A3008 RMK A01 T02170183  RH  086%=      5-min Rain = 0
KLD1 070730Z 10004KT 21/18 A3008 RMK A01 T02110181  RH  088%=      5-min Rain = 0
KLD1 070735Z 12003KT 21/18 A3008 RMK A01 T02090183  RH  089%=      5-min Rain = 0
KLD1 070740Z 11004KT 21/18 A3008 RMK A01 T02100182  RH  089%=      5-min Rain = 0
KLD1 070745Z 10005KT 21/18 A3008 RMK A01 T02070181  RH  090%=      5-min Rain = 0
KLD1 070750Z 11006KT 21/18 A3008 RMK A01 T02050181  RH  090%=      5-min Rain = 0
KLD1 070755Z 11005KT 21/18 A3008 RMK A01 T02060182  RH  091%=      5-min Rain = 0
KLD1 070800Z 11004KT 21/18 A3008 RMK A01 T02090183  RH  090%=      5-min Rain = 0
KLD1 070805Z 11004KT 21/18 A3008 RMK A01 T02090183  RH  090%=      5-min Rain = 0
KLD1 070810Z 10005KT 21/18 A3008 RMK A01 T02070181  RH  090%=      5-min Rain = 0
KLD1 070815Z 10006KT 20/18 A3008 RMK A01 T02040180  RH  091%=      5-min Rain = 0
KLD1 070820Z 11006KT 20/18 A3007 RMK A01 T02020180  RH  092%=      5-min Rain = 0
KLD1 070825Z 11005KT 20/18 A3007 RMK A01 T02040182  RH  092%=      5-min Rain = 0
KLD1 070830Z 10005KT 20/18 A3007 RMK A01 T02040181  RH  091%=      5-min Rain = 0
KLD1 070835Z 09005KT 20/18 A3007 RMK A01 T02020180  RH  092%=      5-min Rain = 0
KLD1 070840Z 10005KT 20/18 A3007 RMK A01 T02010180  RH  093%=      5-min Rain = 0
KLD1 070845Z 10005KT 20/18 A3007 RMK A01 T02010181  RH  093%=      5-min Rain = 0
KLD1 070850Z 09005KT 20/18 A3007 RMK A01 T02010180  RH  093%=      5-min Rain = 0
KLD1 070855Z 10005KT 20/18 A3007 RMK A01 T02000181  RH  093%=      5-min Rain = 0
KLD1 070900Z 10005KT 20/18 A3007 RMK A01 T02010182  RH  093%=      5-min Rain = 0
KLD1 070905Z 10005KT 20/18 A3007 RMK A01 T02010181  RH  093%=      5-min Rain = 0
KLD1 070910Z 11003KT 20/18 A3007 RMK A01 T02020182  RH  093%=      5-min Rain = 0
KLD1 070915Z 10003KT 20/18 A3007 RMK A01 T02020183  RH  093%=      5-min Rain = 0
KLD1 070920Z 11002KT 20/18 A3007 RMK A01 T02020182  RH  093%=      5-min Rain = 0
KLD1 070925Z 12002KT 20/18 A3007 RMK A01 T02020183  RH  094%=      5-min Rain = 0
KLD1 070930Z 11003KT 20/18 A3007 RMK A01 T02030184  RH  094%=      5-min Rain = 0
KLD1 070935Z 11004KT 20/18 A3007 RMK A01 T02030183  RH  093%=      5-min Rain = 0
KLD1 070940Z 10005KT 20/18 A3007 RMK A01 T02020181  RH  093%=      5-min Rain = 0
KLD1 070945Z 11004KT 20/18 A3007 RMK A01 T02000181  RH  094%=      5-min Rain = 0
KLD1 070950Z 10003KT 20/18 A3007 RMK A01 T02000182  RH  094%=      5-min Rain = 0
KLD1 070955Z 12003KT 20/18 A3007 RMK A01 T02000183  RH  095%=      5-min Rain = 0
KLD1 071000Z 12003KT 20/18 A3007 RMK A01 T02010183  RH  094%=      5-min Rain = 0
KLD1 071005Z 13003KT 20/18 A3007 RMK A01 T02010183  RH  094%=      5-min Rain = 0
KLD1 071010Z 13003KT 20/18 A3007 RMK A01 T02010182  RH  094%=      5-min Rain = 0
KLD1 071015Z 12003KT 20/18 A3007 RMK A01 T02010182  RH  094%=      5-min Rain = 0
KLD1 071020Z 13002KT 20/18 A3007 RMK A01 T02010182  RH  094%=      5-min Rain = 0
KLD1 071025Z 12002KT 20/18 A3007 RMK A01 T02000182  RH  094%=      5-min Rain = 0
KLD1 071030Z 12002KT 20/18 A3007 RMK A01 T01990182  RH  094%=      5-min Rain = 0
KLD1 071035Z 10003KT 20/18 A3007 RMK A01 T01980181  RH  094%=      5-min Rain = 0
KLD1 071040Z 09004KT 19/17 A3008 RMK A01 T01910174  RH  094%=      5-min Rain = 0
KLD1 071045Z 10005KT 19/17 A3008 RMK A01 T01890174  RH  096%=      5-min Rain = 0
KLD1 071050Z 09005KT 19/18 A3008 RMK A01 T01890176  RH  097%=      5-min Rain = 0
KLD1 071055Z 09004KT 19/18 A3008 RMK A01 T01900178  RH  097%=      5-min Rain = 0
KLD1 071100Z 14002KT 19/18 A3009 RMK A01 T01930181  RH  098%=      5-min Rain = 0
KLD1 071105Z 23003KT 19/18 A3009 RMK A01 T01930180  RH  097%=      5-min Rain = 0
KLD1 071110Z 22002KT 19/18 A3008 RMK A01 T01900176  RH  097%=      5-min Rain = 0
KLD1 071115Z 20002KT 19/18 A3008 RMK A01 T01910178  RH  097%=      5-min Rain = 0
KLD1 071120Z 22002KT 19/18 A3008 RMK A01 T01890175  RH  097%=      5-min Rain = 0
KLD1 071125Z 26003KT 19/17 A3009 RMK A01 T01850171  RH  096%=      5-min Rain = 0
KLD1 071130Z 25003KT 19/17 A3008 RMK A01 T01850172  RH  097%=      5-min Rain = 0
KLD1 071135Z 25003KT 18/17 A3009 RMK A01 T01840171  RH  097%=      5-min Rain = 0
KLD1 071140Z 27004KT 18/17 A3009 RMK A01 T01820169  RH  097%=      5-min Rain = 0
KLD1 071145Z 28003KT 19/17 A3009 RMK A01 T01850173  RH  098%=      5-min Rain = 0
KLD1 071150Z 31002KT 18/17 A3009 RMK A01 T01820169  RH  097%=      5-min Rain = 0
KLD1 071155Z 33002KT 18/17 A3009 RMK A01 T01820170  RH  098%=      5-min Rain = 0
KLD1 071200Z 32001KT 18/17 A3009 RMK A01 T01840172  RH  098%=      5-min Rain = 0
KLD1 071205Z 05001KT 18/17 A3009 RMK A01 T01840173  RH  098%=      5-min Rain = 0
KLD1 071210Z 04002KT 19/17 A3009 RMK A01 T01850172  RH  097%=      5-min Rain = 0
KLD1 071215Z 06001KT 19/17 A3009 RMK A01 T01860173  RH  097%=      5-min Rain = 0
KLD1 071220Z 05001KT 19/17 A3009 RMK A01 T01870173  RH  097%=      5-min Rain = 0
KLD1 071225Z 05001KT 19/18 A3009 RMK A01 T01890175  RH  096%=      5-min Rain = 0
KLD1 071230Z 05000KT 19/18 A301 RMK A01 T01930178  RH  096%=      5-min Rain = 0
KLD1 071235Z 07001KT 20/18 A301 RMK A01 T01980184  RH  096%=      5-min Rain = 0
KLD1 071240Z 05001KT 21/19 A3009 RMK A01 T02060189  RH  095%=      5-min Rain = 0
KLD1 071245Z 04001KT 21/19 A3009 RMK A01 T02110188  RH  092%=      5-min Rain = 0
KLD1 071250Z 02001KT 21/19 A301 RMK A01 T02130188  RH  090%=      5-min Rain = 0
KLD1 071255Z 04001KT 22/19 A301 RMK A01 T02180189  RH  088%=      5-min Rain = 0
KLD1 071300Z 03000KT 22/19 A301 RMK A01 T02230190  RH  086%=      5-min Rain = 0
KLD1 071305Z 06001KT 23/19 A301 RMK A01 T02290191  RH  084%=      5-min Rain = 0
KLD1 071310Z 07003KT 22/19 A301 RMK A01 T02230188  RH  085%=      5-min Rain = 0
KLD1 071315Z 06003KT 22/19 A3011 RMK A01 T02230190  RH  086%=      5-min Rain = 0
KLD1 071320Z 07003KT 22/19 A3011 RMK A01 T02240190  RH  086%=      5-min Rain = 0
KLD1 071325Z 09004KT 22/19 A3011 RMK A01 T02240190  RH  085%=      5-min Rain = 0
KLD1 071330Z 09004KT 23/19 A3011 RMK A01 T02260189  RH  084%=      5-min Rain = 0
KLD1 071335Z 08005KT 23/19 A301 RMK A01 T02270189  RH  084%=      5-min Rain = 0
KLD1 071340Z 09005KT 23/19 A301 RMK A01 T02280189  RH  083%=      5-min Rain = 0
KLD1 071345Z 09005KT 23/19 A3011 RMK A01 T02300190  RH  082%=      5-min Rain = 0
KLD1 071350Z 09005KT 24/19 A3011 RMK A01 T02350189  RH  080%=      5-min Rain = 0
KLD1 071355Z 09006KT 23/19 A3011 RMK A01 T02340187  RH  079%=      5-min Rain = 0
KLD1 071400Z 09006KT 24/19 A3011 RMK A01 T02350187  RH  079%=      5-min Rain = 0
KLD1 071405Z 10005KT 24/19 A3011 RMK A01 T02370187  RH  078%=      5-min Rain = 0
KLD1 071410Z 09004KT 24/19 A3011 RMK A01 T02400188  RH  077%=      5-min Rain = 0
KLD1 071415Z 11005KT 24/19 A3011 RMK A01 T02390185  RH  076%=      5-min Rain = 0
KLD1 071420Z 10004KT 24/19 A3011 RMK A01 T02430185  RH  074%=      5-min Rain = 0
KLD1 071425Z 11004KT 25/19 A3011 RMK A01 T02450186  RH  074%=      5-min Rain = 0
KLD1 071430Z 11005KT 25/19 A3012 RMK A01 T02470185  RH  073%=      5-min Rain = 0
KLD1 071435Z 12004KT 25/19 A3012 RMK A01 T02470186  RH  072%=      5-min Rain = 0
KLD1 071440Z 12004KT 25/19 A3012 RMK A01 T02500186  RH  072%=      5-min Rain = 0
KLD1 071445Z 10005KT 25/19 A3012 RMK A01 T02520187  RH  071%=      5-min Rain = 0
KLD1 071450Z 11005KT 25/19 A3011 RMK A01 T02530186  RH  070%=      5-min Rain = 0
KLD1 071455Z 11006KT 25/18 A3011 RMK A01 T02540184  RH  069%=      5-min Rain = 0
KLD1 071500Z 11005KT 26/19 A3012 RMK A01 T02550186  RH  069%=      5-min Rain = 0
KLD1 071505Z 11005KT 26/19 A3012 RMK A01 T02580185  RH  068%=      5-min Rain = 0
KLD1 071510Z 10006KT 26/18 A3011 RMK A01 T02570184  RH  067%=      5-min Rain = 0
KLD1 071515Z 13005KT 26/18 A3011 RMK A01 T02590182  RH  066%=      5-min Rain = 0
KLD1 071520Z 12005KT 26/18 A3011 RMK A01 T02620183  RH  065%=      5-min Rain = 0
KLD1 071525Z 13004KT 26/18 A3011 RMK A01 T02610183  RH  065%=      5-min Rain = 0
KLD1 071530Z 12004KT 27/18 A3011 RMK A01 T02650182  RH  064%=      5-min Rain = 0
KLD1 071535Z 11005KT 27/18 A3011 RMK A01 T02690182  RH  062%=      5-min Rain = 0
KLD1 071540Z 11004KT 27/18 A3011 RMK A01 T02670180  RH  062%=      5-min Rain = 0
KLD1 071545Z 12006KT 27/18 A3011 RMK A01 T02680179  RH  061%=      5-min Rain = 0
KLD1 071550Z 12005KT 27/18 A3011 RMK A01 T02670180  RH  062%=      5-min Rain = 0
KLD1 071555Z 08005KT 27/18 A3011 RMK A01 T02680181  RH  062%=      5-min Rain = 0
KLD1 071600Z 11006KT 28/18 A3011 RMK A01 T02750179  RH  059%=      5-min Rain = 0
KLD1 071605Z 13005KT 27/18 A3011 RMK A01 T02730177  RH  059%=      5-min Rain = 0
KLD1 071610Z 11004KT 28/18 A3011 RMK A01 T02750177  RH  058%=      5-min Rain = 0
KLD1 071615Z 10006KT 28/17 A3011 RMK A01 T02780171  RH  055%=      5-min Rain = 0
KLD1 071620Z 13005KT 28/17 A3011 RMK A01 T02780173  RH  056%=      5-min Rain = 0
KLD1 071625Z 11005KT 28/17 A3011 RMK A01 T02790174  RH  056%=      5-min Rain = 0
KLD1 071630Z 12005G12KT 28/18 A3011 RMK A01 T02810176  RH  056%=      5-min Rain = 0
KLD1 071635Z 13005G10KT 28/18 A3011 RMK A01 T02840175  RH  054%=      5-min Rain = 0
KLD1 071640Z 15005KT 29/17 A3011 RMK A01 T02850171  RH  053%=      5-min Rain = 0
KLD1 071645Z 12007KT 29/17 A3011 RMK A01 T02890174  RH  052%=      5-min Rain = 0
KLD1 071650Z 12005KT 29/17 A3011 RMK A01 T02870173  RH  053%=      5-min Rain = 0
KLD1 071655Z 13007KT 29/17 A3011 RMK A01 T02910172  RH  051%=      5-min Rain = 0
KLD1 071700Z 12007KT 29/17 A3011 RMK A01 T02900170  RH  051%=      5-min Rain = 0
KLD1 071705Z 08006G11KT 29/17 A3011 RMK A01 T02890172  RH  052%=      5-min Rain = 0
KLD1 071710Z 14005G10KT 29/17 A3011 RMK A01 T02930171  RH  050%=      5-min Rain = 0
KLD1 071715Z 13007KT 30/17 A3011 RMK A01 T02970171  RH  049%=      5-min Rain = 0
KLD1 071720Z 12008KT 30/17 A301 RMK A01 T02960173  RH  050%=      5-min Rain = 0
KLD1 071725Z 15006KT 30/17 A301 RMK A01 T02960170  RH  049%=      5-min Rain = 0
KLD1 071730Z 12008G13KT 30/17 A301 RMK A01 T02960171  RH  049%=      5-min Rain = 0
KLD1 071735Z 17005KT 30/17 A301 RMK A01 T02950168  RH  049%=      5-min Rain = 0
KLD1 071740Z 15005KT 30/17 A301 RMK A01 T02990167  RH  047%=      5-min Rain = 0
KLD1 071745Z 15004KT 30/17 A301 RMK A01 T03000167  RH  047%=      5-min Rain = 0
KLD1 071750Z 13004G9KT 30/17 A301 RMK A01 T03020167  RH  046%=      5-min Rain = 0
KLD1 071755Z 11004G10KT 30/17 A301 RMK A01 T03030166  RH  046%=      5-min Rain = 0
KLD1 071800Z 12009KT 30/17 A3009 RMK A01 T03040165  RH  045%=      5-min Rain = 0
KLD1 071805Z 11005G10KT 30/16 A301 RMK A01 T03000164  RH  046%=      5-min Rain = 0
KLD1 071810Z 13002KT 31/16 A301 RMK A01 T03080164  RH  044%=      5-min Rain = 0
KLD1 071815Z 10005KT 31/16 A3009 RMK A01 T03100161  RH  043%=      5-min Rain = 0
KLD1 071820Z 09005KT 31/16 A3009 RMK A01 T03060159  RH  043%=      5-min Rain = 0
KLD1 071825Z 14004G9KT 31/16 A3009 RMK A01 T03060158  RH  043%=      5-min Rain = 0
KLD1 071830Z 13005G10KT 31/16 A3009 RMK A01 T03090158  RH  042%=      5-min Rain = 0
KLD1 071835Z 10007KT 31/16 A3009 RMK A01 T03110157  RH  041%=      5-min Rain = 0
KLD1 071840Z 12003KT 31/15 A3009 RMK A01 T03080154  RH  041%=      5-min Rain = 0
KLD1 071845Z 09005G11KT 31/16 A3008 RMK A01 T03110157  RH  041%=      5-min Rain = 0
KLD1 071850Z 09007KT 31/16 A3008 RMK A01 T03110155  RH  041%=      5-min Rain = 0
KLD1 071855Z 12005KT 31/15 A3008 RMK A01 T03110149  RH  039%=      5-min Rain = 0
KLD1 071900Z 13003KT 31/15 A3008 RMK A01 T03130146  RH  038%=      5-min Rain = 0
KLD1 071905Z 10006KT 31/15 A3007 RMK A01 T03140148  RH  038%=      5-min Rain = 0
KLD1 071910Z 12006G12KT 32/15 A3007 RMK A01 T03180148  RH  037%=      5-min Rain = 0
KLD1 071915Z 12007KT 32/15 A3007 RMK A01 T03200151  RH  038%=      5-min Rain = 0
KLD1 071920Z 08005KT 32/15 A3007 RMK A01 T03150146  RH  038%=      5-min Rain = 0
KLD1 071925Z 03003KT 31/14 A3007 RMK A01 T03130143  RH  037%=      5-min Rain = 0
KLD1 071930Z 14006KT 32/14 A3006 RMK A01 T03190141  RH  035%=      5-min Rain = 0
KLD1 071935Z 17002G9KT 32/14 A3006 RMK A01 T03210137  RH  034%=      5-min Rain = 0
KLD1 071940Z 09007KT 32/14 A3006 RMK A01 T03220136  RH  034%=      5-min Rain = 0
KLD1 071945Z 09006KT 32/13 A3005 RMK A01 T03200133  RH  033%=      5-min Rain = 0
KLD1 071950Z 04003KT 32/13 A3005 RMK A01 T03180131  RH  033%=      5-min Rain = 0
KLD1 071955Z 08005G12KT 33/14 A3005 RMK A01 T03250136  RH  033%=      5-min Rain = 0
KLD1 072000Z 10005G10KT 32/13 A3005 RMK A01 T03230134  RH  033%=      5-min Rain = 0
KLD1 072005Z 13004G10KT 32/13 A3004 RMK A01 T03220132  RH  033%=      5-min Rain = 0
KLD1 072010Z 12007KT 32/14 A3004 RMK A01 T03220135  RH  033%=      5-min Rain = 0
KLD1 072015Z 14004KT 32/14 A3004 RMK A01 T03200136  RH  034%=      5-min Rain = 0
KLD1 072020Z 20004G9KT 32/14 A3004 RMK A01 T03240135  RH  033%=      5-min Rain = 0
KLD1 072025Z 15005G10KT 33/13 A3003 RMK A01 T03260126  RH  031%=      5-min Rain = 0
KLD1 072030Z 11008G13KT 33/13 A3003 RMK A01 T03320130  RH  031%=      5-min Rain = 0
KLD1 072035Z 13004KT 33/13 A3003 RMK A01 T03300132  RH  031%=      5-min Rain = 0
KLD1 072040Z 12006G12KT 33/14 A3003 RMK A01 T03310137  RH  032%=      5-min Rain = 0
KLD1 072045Z 13005G15KT 33/14 A3002 RMK A01 T03290140  RH  033%=      5-min Rain = 0
KLD1 072050Z 11009G16KT 33/14 A3002 RMK A01 T03280136  RH  032%=      5-min Rain = 0
KLD1 072055Z 11010G16KT 33/13 A3002 RMK A01 T03280133  RH  032%=      5-min Rain = 0
KLD1 072100Z 10006KT 32/13 A3002 RMK A01 T03240130  RH  032%=      5-min Rain = 0
KLD1 072105Z 12010KT 33/13 A3002 RMK A01 T03330130  RH  031%=      5-min Rain = 0
KLD1 072110Z 15008G14KT 33/13 A3002 RMK A01 T03320130  RH  031%=      5-min Rain = 0
KLD1 072115Z 19005KT 33/13 A3001 RMK A01 T03340130  RH  030%=      5-min Rain = 0
KLD1 072120Z 12005G11KT 34/13 A3001 RMK A01 T03360129  RH  030%=      5-min Rain = 0
KLD1 072125Z 08008G13KT 33/13 A3001 RMK A01 T03310125  RH  030%=      5-min Rain = 0
KLD1 072130Z 12005G10KT 34/13 A3001 RMK A01 T03360127  RH  029%=      5-min Rain = 0
KLD1 072135Z 15006KT 33/13 A30 RMK A01 T03340125  RH  029%=      5-min Rain = 0
KLD1 072140Z 14006KT 34/12 A30 RMK A01 T03380121  RH  028%=      5-min Rain = 0
KLD1 072145Z 15004KT 34/12 A30 RMK A01 T03370121  RH  028%=      5-min Rain = 0
KLD1 072150Z 11005G10KT 34/12 A30 RMK A01 T03350120  RH  028%=      5-min Rain = 0
KLD1 072155Z 07004KT 33/12 A30 RMK A01 T03330120  RH  028%=      5-min Rain = 0
KLD1 072200Z 11007KT 34/12 A30 RMK A01 T03370122  RH  028%=      5-min Rain = 0
KLD1 072205Z 09010KT 34/12 A2999 RMK A01 T03360123  RH  029%=      5-min Rain = 0
KLD1 072210Z 07008KT 33/12 A2999 RMK A01 T03340122  RH  029%=      5-min Rain = 0
KLD1 072215Z 05006KT 34/12 A2999 RMK A01 T03350122  RH  029%=      5-min Rain = 0
KLD1 072220Z 07005KT 33/12 A2999 RMK A01 T03330122  RH  029%=      5-min Rain = 0
KLD1 072225Z 12008KT 34/12 A2999 RMK A01 T03350121  RH  028%=      5-min Rain = 0
KLD1 072230Z 14007KT 34/12 A2999 RMK A01 T03380120  RH  028%=      5-min Rain = 0
KLD1 072235Z 13007KT 34/12 A2999 RMK A01 T03370120  RH  028%=      5-min Rain = 0
KLD1 072240Z 12005G10KT 33/12 A2999 RMK A01 T03330119  RH  028%=      5-min Rain = 0
KLD1 072245Z 10002KT 34/12 A2999 RMK A01 T03380122  RH  028%=      5-min Rain = 0
KLD1 072250Z 13003KT 34/13 A2998 RMK A01 T03350126  RH  029%=      5-min Rain = 0
KLD1 072255Z 13005KT 34/13 A2998 RMK A01 T03370128  RH  029%=      5-min Rain = 0
KLD1 072300Z 14009KT 34/13 A2999 RMK A01 T03390127  RH  029%=      5-min Rain = 0
KLD1 072305Z 17008G14KT 34/13 A2999 RMK A01 T03360126  RH  029%=      5-min Rain = 0
KLD1 072310Z 17005KT 34/13 A2998 RMK A01 T03350126  RH  029%=      5-min Rain = 0
KLD1 072315Z 08006KT 33/13 A2998 RMK A01 T03340125  RH  029%=      5-min Rain = 0
KLD1 072320Z 11007KT 33/13 A2998 RMK A01 T03330130  RH  030%=      5-min Rain = 0
KLD1 072325Z 15008G15KT 34/13 A2998 RMK A01 T03360129  RH  030%=      5-min Rain = 0
KLD1 072330Z 15010G15KT 34/13 A2998 RMK A01 T03360128  RH  030%=      5-min Rain = 0
KLD1 072335Z 15009KT 34/13 A2998 RMK A01 T03360128  RH  030%=      5-min Rain = 0
KLD1 072340Z 14008G13KT 33/13 A2998 RMK A01 T03340127  RH  030%=      5-min Rain = 0
KLD1 072345Z 13007G12KT 33/13 A2998 RMK A01 T03330126  RH  030%=      5-min Rain = 0
KLD1 072350Z 13009KT 33/12 A2998 RMK A01 T03340123  RH  029%=      5-min Rain = 0
KLD1 072355Z 13008KT 33/12 A2998 RMK A01 T03340124  RH  029%=      5-min Rain = 0
KLD1 080000Z 11009G14KT 33/12 A2998 RMK A01 T03340123  RH  029%=      5-min Rain = 0
KLD1 080005Z 11008KT 33/12 A2998 RMK A01 T03300121  RH  029%=      5-min Rain = 0
KLD1 080010Z 12007G12KT 33/12 A2998 RMK A01 T03320119  RH  028%=      5-min Rain = 0
KLD1 080015Z 12009KT 33/12 A2997 RMK A01 T03310115  RH  028%=      5-min Rain = 0
KLD1 080020Z 12009KT 33/12 A2997 RMK A01 T03320117  RH  028%=      5-min Rain = 0
KLD1 080025Z 11009KT 33/12 A2997 RMK A01 T03290116  RH  028%=      5-min Rain = 0
KLD1 080030Z 12007KT 33/12 A2997 RMK A01 T03300115  RH  028%=      5-min Rain = 0
KLD1 080035Z 12008KT 33/11 A2997 RMK A01 T03290113  RH  028%=      5-min Rain = 0
KLD1 080040Z 11010KT 33/11 A2997 RMK A01 T03270113  RH  028%=      5-min Rain = 0
KLD1 080045Z 11007KT 33/11 A2997 RMK A01 T03280111  RH  028%=      5-min Rain = 0
KLD1 080050Z 12006KT 33/11 A2997 RMK A01 T03280108  RH  027%=      5-min Rain = 0
KLD1 080055Z 12008KT 33/11 A2997 RMK A01 T03280108  RH  027%=      5-min Rain = 0
KLD1 080100Z 13008KT 33/11 A2997 RMK A01 T03270108  RH  027%=      5-min Rain = 0
KLD1 080105Z 14008KT 33/12 A2997 RMK A01 T03260115  RH  028%=      5-min Rain = 0
KLD1 080110Z 14008KT 32/12 A2997 RMK A01 T03240118  RH  030%=      5-min Rain = 0
KLD1 080115Z 12008KT 32/12 A2997 RMK A01 T03230116  RH  029%=      5-min Rain = 0
KLD1 080120Z 13007KT 32/12 A2997 RMK A01 T03230119  RH  030%=      5-min Rain = 0
KLD1 080125Z 13009G14KT 32/12 A2998 RMK A01 T03210123  RH  031%=      5-min Rain = 0
KLD1 080130Z 13010KT 32/13 A2998 RMK A01 T03170133  RH  034%=      5-min Rain = 0
KLD1 080135Z 13010KT 31/14 A2998 RMK A01 T03140135  RH  035%=      5-min Rain = 0
KLD1 080140Z 14010KT 31/14 A2999 RMK A01 T03110135  RH  036%=      5-min Rain = 0
KLD1 080145Z 13010KT 31/14 A2999 RMK A01 T03090136  RH  036%=      5-min Rain = 0
KLD1 080150Z 13009KT 31/14 A2999 RMK A01 T03070136  RH  037%=      5-min Rain = 0
KLD1 080155Z 13010KT 31/14 A2999 RMK A01 T03050136  RH  037%=      5-min Rain = 0
KLD1 080200Z 13009KT 30/13 A2999 RMK A01 T03040134  RH  037%=      5-min Rain = 0
KLD1 080205Z 13009KT 30/14 A2999 RMK A01 T03020135  RH  038%=      5-min Rain = 0
KLD1 080210Z 13008KT 30/14 A2999 RMK A01 T03000135  RH  038%=      5-min Rain = 0
KLD1 080215Z 13009KT 30/13 A2999 RMK A01 T02990134  RH  038%=      5-min Rain = 0
KLD1 080220Z 13009KT 30/13 A2999 RMK A01 T02970133  RH  038%=      5-min Rain = 0
KLD1 080225Z 12008KT 30/13 A30 RMK A01 T02960132  RH  038%=      5-min Rain = 0
KLD1 080230Z 12008KT 29/13 A30 RMK A01 T02940133  RH  039%=      5-min Rain = 0
KLD1 080235Z 12008KT 29/13 A30 RMK A01 T02930132  RH  039%=      5-min Rain = 0
KLD1 080240Z 12008KT 29/13 A30 RMK A01 T02920133  RH  039%=      5-min Rain = 0
KLD1 080245Z 12009KT 29/13 A30 RMK A01 T02910133  RH  040%=      5-min Rain = 0
KLD1 080250Z 11009KT 29/14 A30 RMK A01 T02890135  RH  040%=      5-min Rain = 0
KLD1 080255Z 12008KT 29/14 A30 RMK A01 T02870135  RH  041%=      5-min Rain = 0
KLD1 080300Z 13008KT 29/14 A30 RMK A01 T02860136  RH  041%=      5-min Rain = 0
KLD1 080305Z 13007KT 29/14 A30 RMK A01 T02850135  RH  042%=      5-min Rain = 0
KLD1 080310Z 13006KT 28/14 A30 RMK A01 T02830136  RH  042%=      5-min Rain = 0
KLD1 080315Z 13007KT 28/14 A30 RMK A01 T02800137  RH  043%=      5-min Rain = 0
KLD1 080320Z 13008KT 28/14 A3001 RMK A01 T02800137  RH  043%=      5-min Rain = 0
KLD1 080325Z 13008KT 28/14 A3001 RMK A01 T02790138  RH  044%=      5-min Rain = 0
KLD1 080330Z 13008KT 28/14 A3001 RMK A01 T02770141  RH  045%=      5-min Rain = 0
KLD1 080335Z 13008KT 28/14 A3001 RMK A01 T02770144  RH  046%=      5-min Rain = 0
KLD1 080340Z 13008KT 28/15 A3001 RMK A01 T02770147  RH  047%=      5-min Rain = 0
KLD1 080345Z 12009KT 28/15 A3001 RMK A01 T02770150  RH  048%=      5-min Rain = 0
KLD1 080350Z 13009KT 28/15 A3001 RMK A01 T02770151  RH  048%=      5-min Rain = 0
KLD1 080355Z 13009KT 28/15 A3001 RMK A01 T02770153  RH  049%=      5-min Rain = 0
KLD1 080400Z 13010KT 28/16 A3001 RMK A01 T02760155  RH  050%=      5-min Rain = 0
KLD1 080405Z 13010KT 27/16 A3001 RMK A01 T02740157  RH  051%=      5-min Rain = 0
KLD1 080410Z 13011KT 27/16 A3002 RMK A01 T02730160  RH  053%=      5-min Rain = 0
KLD1 080415Z 13010KT 27/16 A3002 RMK A01 T02710162  RH  054%=      5-min Rain = 0
KLD1 080420Z 12009KT 27/17 A3002 RMK A01 T02690167  RH  056%=      5-min Rain = 0
KLD1 080425Z 11011KT 27/17 A3002 RMK A01 T02670169  RH  057%=      5-min Rain = 0
KLD1 080430Z 12010KT 27/17 A3002 RMK A01 T02670169  RH  058%=      5-min Rain = 0
KLD1 080435Z 12009KT 27/17 A3002 RMK A01 T02660172  RH  059%=      5-min Rain = 0
KLD1 080440Z 12009KT 27/18 A3002 RMK A01 T02650175  RH  061%=      5-min Rain = 0
KLD1 080445Z 12008KT 26/18 A3002 RMK A01 T02640177  RH  062%=      5-min Rain = 0
KLD1 080450Z 13009KT 26/18 A3002 RMK A01 T02630179  RH  063%=      5-min Rain = 0
KLD1 080455Z 13010KT 26/18 A3002 RMK A01 T02620180  RH  064%=      5-min Rain = 0

Page generated in 0.0312 seconds.